sensor_id;sensor_type;location;lat;lon;timestamp;temperature;humidity
22069;DHT22;13887;57.196;-2.100;2023-05-07T00:01:35;10.06;90.71
22069;DHT22;13887;57.196;-2.100;2023-05-07T00:04:02;10.04;90.79
22069;DHT22;13887;57.196;-2.100;2023-05-07T00:06:30;10.03;90.69
22069;DHT22;13887;57.196;-2.100;2023-05-07T00:08:58;10.03;90.57
22069;DHT22;13887;57.196;-2.100;2023-05-07T00:11:25;10.05;90.44
22069;DHT22;13887;57.196;-2.100;2023-05-07T00:13:52;10.05;90.45
22069;DHT22;13887;57.196;-2.100;2023-05-07T00:16:19;10.04;90.58
22069;DHT22;13887;57.196;-2.100;2023-05-07T00:18:46;10.04;90.67
22069;DHT22;13887;57.196;-2.100;2023-05-07T00:21:13;10.05;90.39
22069;DHT22;13887;57.196;-2.100;2023-05-07T00:23:40;10.03;90.39
22069;DHT22;13887;57.196;-2.100;2023-05-07T00:26:07;10.03;90.42
22069;DHT22;13887;57.196;-2.100;2023-05-07T00:28:34;10.03;90.44
22069;DHT22;13887;57.196;-2.100;2023-05-07T00:31:01;10.01;90.54
22069;DHT22;13887;57.196;-2.100;2023-05-07T00:33:28;10.03;90.65
22069;DHT22;13887;57.196;-2.100;2023-05-07T00:35:55;10.01;90.66
22069;DHT22;13887;57.196;-2.100;2023-05-07T00:38:22;10.03;90.60
22069;DHT22;13887;57.196;-2.100;2023-05-07T00:40:48;10.00;90.72
22069;DHT22;13887;57.196;-2.100;2023-05-07T00:43:16;10.04;90.44
22069;DHT22;13887;57.196;-2.100;2023-05-07T00:45:43;9.99;90.42
22069;DHT22;13887;57.196;-2.100;2023-05-07T00:48:10;9.99;90.52
22069;DHT22;13887;57.196;-2.100;2023-05-07T00:50:37;9.98;90.76
22069;DHT22;13887;57.196;-2.100;2023-05-07T00:53:05;9.98;90.99
22069;DHT22;13887;57.196;-2.100;2023-05-07T00:55:32;9.97;91.18
22069;DHT22;13887;57.196;-2.100;2023-05-07T00:57:59;9.96;91.18
22069;DHT22;13887;57.196;-2.100;2023-05-07T01:00:26;9.97;91.05
22069;DHT22;13887;57.196;-2.100;2023-05-07T01:02:53;9.98;90.91
22069;DHT22;13887;57.196;-2.100;2023-05-07T01:05:23;9.97;90.77
22069;DHT22;13887;57.196;-2.100;2023-05-07T01:07:53;9.98;90.92
22069;DHT22;13887;57.196;-2.100;2023-05-07T01:10:22;9.98;90.76
22069;DHT22;13887;57.196;-2.100;2023-05-07T01:12:50;9.96;90.89
22069;DHT22;13887;57.196;-2.100;2023-05-07T01:15:17;9.95;90.83
22069;DHT22;13887;57.196;-2.100;2023-05-07T01:17:45;9.93;91.06
22069;DHT22;13887;57.196;-2.100;2023-05-07T01:20:18;9.94;91.11
22069;DHT22;13887;57.196;-2.100;2023-05-07T01:22:49;9.93;91.10
22069;DHT22;13887;57.196;-2.100;2023-05-07T01:25:16;9.93;91.02
22069;DHT22;13887;57.196;-2.100;2023-05-07T01:27:48;9.93;90.85
22069;DHT22;13887;57.196;-2.100;2023-05-07T01:30:16;9.93;90.91
22069;DHT22;13887;57.196;-2.100;2023-05-07T01:32:45;9.92;90.83
22069;DHT22;13887;57.196;-2.100;2023-05-07T01:35:19;9.93;90.93
22069;DHT22;13887;57.196;-2.100;2023-05-07T01:37:47;9.93;90.97
22069;DHT22;13887;57.196;-2.100;2023-05-07T01:40:15;9.95;90.77
22069;DHT22;13887;57.196;-2.100;2023-05-07T01:42:43;9.93;90.64
22069;DHT22;13887;57.196;-2.100;2023-05-07T01:45:10;9.93;90.66
22069;DHT22;13887;57.196;-2.100;2023-05-07T01:47:38;9.95;90.62
22069;DHT22;13887;57.196;-2.100;2023-05-07T01:50:06;9.93;90.65
22069;DHT22;13887;57.196;-2.100;2023-05-07T01:52:38;9.94;90.66
22069;DHT22;13887;57.196;-2.100;2023-05-07T01:55:06;9.93;90.66
22069;DHT22;13887;57.196;-2.100;2023-05-07T01:57:33;9.93;90.75
22069;DHT22;13887;57.196;-2.100;2023-05-07T02:00:00;9.91;90.85
22069;DHT22;13887;57.196;-2.100;2023-05-07T02:02:40;9.91;90.95
22069;DHT22;13887;57.196;-2.100;2023-05-07T02:05:17;9.90;91.15
22069;DHT22;13887;57.196;-2.100;2023-05-07T02:07:47;9.91;91.17
22069;DHT22;13887;57.196;-2.100;2023-05-07T02:10:15;9.90;91.14
22069;DHT22;13887;57.196;-2.100;2023-05-07T02:12:42;9.90;91.02
22069;DHT22;13887;57.196;-2.100;2023-05-07T02:15:09;9.93;91.11
22069;DHT22;13887;57.196;-2.100;2023-05-07T02:18:07;9.91;90.82
22069;DHT22;13887;57.196;-2.100;2023-05-07T02:20:35;9.91;90.95
22069;DHT22;13887;57.196;-2.100;2023-05-07T02:23:02;9.93;90.84
22069;DHT22;13887;57.196;-2.100;2023-05-07T02:25:29;9.92;90.85
22069;DHT22;13887;57.196;-2.100;2023-05-07T02:27:57;9.91;90.80
22069;DHT22;13887;57.196;-2.100;2023-05-07T02:30:37;9.91;90.69
22069;DHT22;13887;57.196;-2.100;2023-05-07T02:33:04;9.90;90.85
22069;DHT22;13887;57.196;-2.100;2023-05-07T02:35:31;9.93;90.66
22069;DHT22;13887;57.196;-2.100;2023-05-07T02:37:59;9.92;91.10
22069;DHT22;13887;57.196;-2.100;2023-05-07T02:40:26;9.89;91.26
22069;DHT22;13887;57.196;-2.100;2023-05-07T02:42:53;9.91;91.15
22069;DHT22;13887;57.196;-2.100;2023-05-07T02:45:20;9.90;91.12
22069;DHT22;13887;57.196;-2.100;2023-05-07T02:47:49;9.91;91.04
22069;DHT22;13887;57.196;-2.100;2023-05-07T02:50:16;9.89;91.05
22069;DHT22;13887;57.196;-2.100;2023-05-07T02:52:43;9.90;91.05
22069;DHT22;13887;57.196;-2.100;2023-05-07T02:55:10;9.90;91.08
22069;DHT22;13887;57.196;-2.100;2023-05-07T02:57:37;9.90;91.02
22069;DHT22;13887;57.196;-2.100;2023-05-07T03:00:16;9.89;91.15
22069;DHT22;13887;57.196;-2.100;2023-05-07T03:02:51;9.88;91.26
22069;DHT22;13887;57.196;-2.100;2023-05-07T03:05:19;9.89;91.26
22069;DHT22;13887;57.196;-2.100;2023-05-07T03:07:46;9.90;91.10
22069;DHT22;13887;57.196;-2.100;2023-05-07T03:10:14;9.90;91.28
22069;DHT22;13887;57.196;-2.100;2023-05-07T03:12:41;9.90;91.06
22069;DHT22;13887;57.196;-2.100;2023-05-07T03:15:11;9.89;91.30
22069;DHT22;13887;57.196;-2.100;2023-05-07T03:17:39;9.92;91.15
22069;DHT22;13887;57.196;-2.100;2023-05-07T03:20:10;9.91;91.09
22069;DHT22;13887;57.196;-2.100;2023-05-07T03:22:39;9.90;91.23
22069;DHT22;13887;57.196;-2.100;2023-05-07T03:25:06;9.90;91.11
22069;DHT22;13887;57.196;-2.100;2023-05-07T03:27:33;9.91;91.37
22069;DHT22;13887;57.196;-2.100;2023-05-07T03:30:01;9.93;91.40
22069;DHT22;13887;57.196;-2.100;2023-05-07T03:32:28;9.92;91.40
22069;DHT22;13887;57.196;-2.100;2023-05-07T03:34:55;9.90;91.46
22069;DHT22;13887;57.196;-2.100;2023-05-07T03:37:22;9.89;91.31
22069;DHT22;13887;57.196;-2.100;2023-05-07T03:39:49;9.90;91.32
22069;DHT22;13887;57.196;-2.100;2023-05-07T03:42:17;9.89;91.43
22069;DHT22;13887;57.196;-2.100;2023-05-07T03:44:45;9.88;91.23
22069;DHT22;13887;57.196;-2.100;2023-05-07T03:47:12;9.89;91.32
22069;DHT22;13887;57.196;-2.100;2023-05-07T03:49:40;9.91;91.34
22069;DHT22;13887;57.196;-2.100;2023-05-07T03:52:07;9.90;91.11
22069;DHT22;13887;57.196;-2.100;2023-05-07T03:54:34;9.91;91.17
22069;DHT22;13887;57.196;-2.100;2023-05-07T03:57:01;9.92;90.98
22069;DHT22;13887;57.196;-2.100;2023-05-07T03:59:28;9.94;90.82
22069;DHT22;13887;57.196;-2.100;2023-05-07T04:01:56;9.92;90.84
22069;DHT22;13887;57.196;-2.100;2023-05-07T04:04:25;9.91;90.74
22069;DHT22;13887;57.196;-2.100;2023-05-07T04:06:52;9.93;90.90
22069;DHT22;13887;57.196;-2.100;2023-05-07T04:09:20;9.91;90.81
22069;DHT22;13887;57.196;-2.100;2023-05-07T04:11:47;9.92;90.82
22069;DHT22;13887;57.196;-2.100;2023-05-07T04:14:14;9.91;90.90
22069;DHT22;13887;57.196;-2.100;2023-05-07T04:16:41;9.91;90.69
22069;DHT22;13887;57.196;-2.100;2023-05-07T04:19:09;9.92;90.72
22069;DHT22;13887;57.196;-2.100;2023-05-07T04:21:37;9.91;90.57
22069;DHT22;13887;57.196;-2.100;2023-05-07T04:24:04;9.94;90.79
22069;DHT22;13887;57.196;-2.100;2023-05-07T04:26:32;9.92;90.64
22069;DHT22;13887;57.196;-2.100;2023-05-07T04:28:59;9.91;90.74
22069;DHT22;13887;57.196;-2.100;2023-05-07T04:31:31;9.93;90.86
22069;DHT22;13887;57.196;-2.100;2023-05-07T04:33:58;9.93;90.63
22069;DHT22;13887;57.196;-2.100;2023-05-07T04:36:26;9.89;90.74
22069;DHT22;13887;57.196;-2.100;2023-05-07T04:39:02;9.93;90.72
22069;DHT22;13887;57.196;-2.100;2023-05-07T04:41:29;9.92;90.84
22069;DHT22;13887;57.196;-2.100;2023-05-07T04:43:57;9.92;90.75
22069;DHT22;13887;57.196;-2.100;2023-05-07T04:46:29;9.91;90.76
22069;DHT22;13887;57.196;-2.100;2023-05-07T04:48:57;9.93;90.64
22069;DHT22;13887;57.196;-2.100;2023-05-07T04:51:24;9.91;90.75
22069;DHT22;13887;57.196;-2.100;2023-05-07T04:53:51;9.89;90.77
22069;DHT22;13887;57.196;-2.100;2023-05-07T04:56:18;9.91;90.69
22069;DHT22;13887;57.196;-2.100;2023-05-07T04:58:46;9.89;90.87
22069;DHT22;13887;57.196;-2.100;2023-05-07T05:01:15;9.90;90.78
22069;DHT22;13887;57.196;-2.100;2023-05-07T05:03:42;9.91;90.81
22069;DHT22;13887;57.196;-2.100;2023-05-07T05:06:10;9.89;90.72
22069;DHT22;13887;57.196;-2.100;2023-05-07T05:08:37;9.90;90.95
22069;DHT22;13887;57.196;-2.100;2023-05-07T05:11:04;9.91;90.75
22069;DHT22;13887;57.196;-2.100;2023-05-07T05:13:33;9.89;90.89
22069;DHT22;13887;57.196;-2.100;2023-05-07T05:16:07;9.91;90.89
22069;DHT22;13887;57.196;-2.100;2023-05-07T05:18:35;9.91;90.96
22069;DHT22;13887;57.196;-2.100;2023-05-07T05:21:02;9.91;90.82
22069;DHT22;13887;57.196;-2.100;2023-05-07T05:23:30;9.90;90.92
22069;DHT22;13887;57.196;-2.100;2023-05-07T05:25:58;9.88;91.03
22069;DHT22;13887;57.196;-2.100;2023-05-07T05:28:28;9.89;90.86
22069;DHT22;13887;57.196;-2.100;2023-05-07T05:30:56;9.90;90.96
22069;DHT22;13887;57.196;-2.100;2023-05-07T05:33:25;9.91;90.86
22069;DHT22;13887;57.196;-2.100;2023-05-07T05:35:54;9.90;90.84
22069;DHT22;13887;57.196;-2.100;2023-05-07T05:38:21;9.93;90.98
22069;DHT22;13887;57.196;-2.100;2023-05-07T05:40:49;9.90;90.90
22069;DHT22;13887;57.196;-2.100;2023-05-07T05:43:16;9.92;90.82
22069;DHT22;13887;57.196;-2.100;2023-05-07T05:45:43;9.91;90.91
22069;DHT22;13887;57.196;-2.100;2023-05-07T05:48:09;9.91;90.89
22069;DHT22;13887;57.196;-2.100;2023-05-07T05:50:37;9.91;90.97
22069;DHT22;13887;57.196;-2.100;2023-05-07T05:53:05;9.91;90.88
22069;DHT22;13887;57.196;-2.100;2023-05-07T05:55:32;9.90;90.84
22069;DHT22;13887;57.196;-2.100;2023-05-07T05:58:02;9.90;90.84
22069;DHT22;13887;57.196;-2.100;2023-05-07T06:00:34;9.92;90.82
22069;DHT22;13887;57.196;-2.100;2023-05-07T06:03:03;9.90;91.05
22069;DHT22;13887;57.196;-2.100;2023-05-07T06:05:30;9.91;91.11
22069;DHT22;13887;57.196;-2.100;2023-05-07T06:07:57;9.91;91.25
22069;DHT22;13887;57.196;-2.100;2023-05-07T06:10:28;9.88;91.32
22069;DHT22;13887;57.196;-2.100;2023-05-07T06:12:57;9.90;91.38
22069;DHT22;13887;57.196;-2.100;2023-05-07T06:15:24;9.90;91.47
22069;DHT22;13887;57.196;-2.100;2023-05-07T06:17:51;9.89;91.58
22069;DHT22;13887;57.196;-2.100;2023-05-07T06:20:19;9.90;91.60
22069;DHT22;13887;57.196;-2.100;2023-05-07T06:22:46;9.89;91.63
22069;DHT22;13887;57.196;-2.100;2023-05-07T06:25:14;9.89;91.53
22069;DHT22;13887;57.196;-2.100;2023-05-07T06:27:42;9.88;91.43
22069;DHT22;13887;57.196;-2.100;2023-05-07T06:30:09;9.90;91.42
22069;DHT22;13887;57.196;-2.100;2023-05-07T06:32:37;9.92;91.35
22069;DHT22;13887;57.196;-2.100;2023-05-07T06:35:05;9.91;91.40
22069;DHT22;13887;57.196;-2.100;2023-05-07T06:37:35;9.91;91.35
22069;DHT22;13887;57.196;-2.100;2023-05-07T06:40:05;9.91;91.41
22069;DHT22;13887;57.196;-2.100;2023-05-07T06:42:37;9.91;91.47
22069;DHT22;13887;57.196;-2.100;2023-05-07T06:45:36;9.91;91.51
22069;DHT22;13887;57.196;-2.100;2023-05-07T06:48:05;9.92;91.60
22069;DHT22;13887;57.196;-2.100;2023-05-07T06:50:39;9.93;91.50
22069;DHT22;13887;57.196;-2.100;2023-05-07T06:53:06;9.93;91.50
22069;DHT22;13887;57.196;-2.100;2023-05-07T06:55:34;9.92;91.58
22069;DHT22;13887;57.196;-2.100;2023-05-07T06:58:00;9.94;91.50
22069;DHT22;13887;57.196;-2.100;2023-05-07T07:00:28;9.94;91.53
22069;DHT22;13887;57.196;-2.100;2023-05-07T07:02:56;9.94;91.34
22069;DHT22;13887;57.196;-2.100;2023-05-07T07:05:26;9.94;91.12
22069;DHT22;13887;57.196;-2.100;2023-05-07T07:07:53;9.95;91.43
22069;DHT22;13887;57.196;-2.100;2023-05-07T07:10:21;9.93;91.50
22069;DHT22;13887;57.196;-2.100;2023-05-07T07:12:50;9.92;91.70
22069;DHT22;13887;57.196;-2.100;2023-05-07T07:15:17;9.97;91.82
22069;DHT22;13887;57.196;-2.100;2023-05-07T07:17:44;9.93;91.78
22069;DHT22;13887;57.196;-2.100;2023-05-07T07:20:11;9.94;91.91
22069;DHT22;13887;57.196;-2.100;2023-05-07T07:22:39;9.95;91.88
22069;DHT22;13887;57.196;-2.100;2023-05-07T07:25:07;9.95;91.50
22069;DHT22;13887;57.196;-2.100;2023-05-07T07:27:37;9.95;91.41
22069;DHT22;13887;57.196;-2.100;2023-05-07T07:30:05;9.95;91.58
22069;DHT22;13887;57.196;-2.100;2023-05-07T07:32:34;9.97;91.80
22069;DHT22;13887;57.196;-2.100;2023-05-07T07:35:01;9.95;91.62
22069;DHT22;13887;57.196;-2.100;2023-05-07T07:37:28;9.95;91.67
22069;DHT22;13887;57.196;-2.100;2023-05-07T07:39:56;9.96;91.72
22069;DHT22;13887;57.196;-2.100;2023-05-07T07:42:24;9.96;91.72
22069;DHT22;13887;57.196;-2.100;2023-05-07T07:44:52;9.94;91.83
22069;DHT22;13887;57.196;-2.100;2023-05-07T07:47:21;9.95;91.90
22069;DHT22;13887;57.196;-2.100;2023-05-07T07:49:49;9.94;91.91
22069;DHT22;13887;57.196;-2.100;2023-05-07T07:52:18;9.97;92.14
22069;DHT22;13887;57.196;-2.100;2023-05-07T07:54:45;9.98;91.88
22069;DHT22;13887;57.196;-2.100;2023-05-07T07:57:12;9.97;91.85
22069;DHT22;13887;57.196;-2.100;2023-05-07T07:59:39;9.96;91.89
22069;DHT22;13887;57.196;-2.100;2023-05-07T08:02:07;9.98;91.88
22069;DHT22;13887;57.196;-2.100;2023-05-07T08:04:36;9.98;91.79
22069;DHT22;13887;57.196;-2.100;2023-05-07T08:07:06;9.98;91.81
22069;DHT22;13887;57.196;-2.100;2023-05-07T08:09:37;9.99;91.76
22069;DHT22;13887;57.196;-2.100;2023-05-07T08:12:07;9.98;91.62
22069;DHT22;13887;57.196;-2.100;2023-05-07T08:14:34;10.00;91.44
22069;DHT22;13887;57.196;-2.100;2023-05-07T08:17:04;9.99;91.57
22069;DHT22;13887;57.196;-2.100;2023-05-07T08:19:31;9.99;91.68
22069;DHT22;13887;57.196;-2.100;2023-05-07T08:21:58;10.00;91.64
22069;DHT22;13887;57.196;-2.100;2023-05-07T08:24:26;10.00;91.55
22069;DHT22;13887;57.196;-2.100;2023-05-07T08:26:53;9.98;91.74
22069;DHT22;13887;57.196;-2.100;2023-05-07T08:29:20;9.98;91.81
22069;DHT22;13887;57.196;-2.100;2023-05-07T08:31:47;9.97;91.96
22069;DHT22;13887;57.196;-2.100;2023-05-07T08:34:14;9.97;92.05
22069;DHT22;13887;57.196;-2.100;2023-05-07T08:36:44;9.96;91.75
22069;DHT22;13887;57.196;-2.100;2023-05-07T08:39:17;9.98;91.83
22069;DHT22;13887;57.196;-2.100;2023-05-07T08:41:48;9.98;91.99
22069;DHT22;13887;57.196;-2.100;2023-05-07T08:44:22;9.97;91.91
22069;DHT22;13887;57.196;-2.100;2023-05-07T08:46:51;9.99;91.67
22069;DHT22;13887;57.196;-2.100;2023-05-07T08:49:22;10.01;91.72
22069;DHT22;13887;57.196;-2.100;2023-05-07T08:51:50;9.99;91.81
22069;DHT22;13887;57.196;-2.100;2023-05-07T08:54:20;10.00;91.89
22069;DHT22;13887;57.196;-2.100;2023-05-07T08:56:47;9.99;91.85
22069;DHT22;13887;57.196;-2.100;2023-05-07T08:59:15;9.99;91.79
22069;DHT22;13887;57.196;-2.100;2023-05-07T09:01:43;9.98;91.79
22069;DHT22;13887;57.196;-2.100;2023-05-07T09:04:10;9.99;91.73
22069;DHT22;13887;57.196;-2.100;2023-05-07T09:06:39;9.99;91.76
22069;DHT22;13887;57.196;-2.100;2023-05-07T09:09:14;9.98;91.66
22069;DHT22;13887;57.196;-2.100;2023-05-07T09:11:41;10.01;91.88
22069;DHT22;13887;57.196;-2.100;2023-05-07T09:14:09;10.00;91.87
22069;DHT22;13887;57.196;-2.100;2023-05-07T09:16:39;10.01;91.76
22069;DHT22;13887;57.196;-2.100;2023-05-07T09:19:07;10.07;91.73
22069;DHT22;13887;57.196;-2.100;2023-05-07T09:21:35;10.04;91.79
22069;DHT22;13887;57.196;-2.100;2023-05-07T09:24:06;10.06;92.14
22069;DHT22;13887;57.196;-2.100;2023-05-07T09:26:37;10.10;92.31
22069;DHT22;13887;57.196;-2.100;2023-05-07T09:29:06;10.10;92.34
22069;DHT22;13887;57.196;-2.100;2023-05-07T09:31:37;10.10;92.41
22069;DHT22;13887;57.196;-2.100;2023-05-07T09:34:06;10.12;92.64
22069;DHT22;13887;57.196;-2.100;2023-05-07T09:36:35;10.11;92.72
22069;DHT22;13887;57.196;-2.100;2023-05-07T09:39:02;10.11;92.97
22069;DHT22;13887;57.196;-2.100;2023-05-07T09:41:30;10.11;92.88
22069;DHT22;13887;57.196;-2.100;2023-05-07T09:44:10;10.10;93.15
22069;DHT22;13887;57.196;-2.100;2023-05-07T09:46:43;10.10;93.04
22069;DHT22;13887;57.196;-2.100;2023-05-07T09:49:23;10.12;93.11
22069;DHT22;13887;57.196;-2.100;2023-05-07T09:52:01;10.08;93.10
22069;DHT22;13887;57.196;-2.100;2023-05-07T09:54:32;10.08;93.33
22069;DHT22;13887;57.196;-2.100;2023-05-07T09:57:02;10.11;93.16
22069;DHT22;13887;57.196;-2.100;2023-05-07T09:59:30;10.10;93.30
22069;DHT22;13887;57.196;-2.100;2023-05-07T10:02:01;10.10;93.47
22069;DHT22;13887;57.196;-2.100;2023-05-07T10:04:35;10.10;93.44
22069;DHT22;13887;57.196;-2.100;2023-05-07T10:07:03;10.08;93.36
22069;DHT22;13887;57.196;-2.100;2023-05-07T10:09:32;10.09;93.50
22069;DHT22;13887;57.196;-2.100;2023-05-07T10:11:59;10.08;93.28
22069;DHT22;13887;57.196;-2.100;2023-05-07T10:14:28;10.08;93.36
22069;DHT22;13887;57.196;-2.100;2023-05-07T10:16:55;10.09;93.45
22069;DHT22;13887;57.196;-2.100;2023-05-07T10:19:25;10.09;93.35
22069;DHT22;13887;57.196;-2.100;2023-05-07T10:22:03;10.09;93.26
22069;DHT22;13887;57.196;-2.100;2023-05-07T10:24:35;10.09;93.15
22069;DHT22;13887;57.196;-2.100;2023-05-07T10:27:11;10.10;93.27
22069;DHT22;13887;57.196;-2.100;2023-05-07T10:35:02;10.12;93.24
22069;DHT22;13887;57.196;-2.100;2023-05-07T10:37:31;10.10;93.15
22069;DHT22;13887;57.196;-2.100;2023-05-07T10:39:58;10.11;93.21
22069;DHT22;13887;57.196;-2.100;2023-05-07T10:42:28;10.11;93.13
22069;DHT22;13887;57.196;-2.100;2023-05-07T10:44:56;10.11;92.99
22069;DHT22;13887;57.196;-2.100;2023-05-07T10:47:27;10.12;92.85
22069;DHT22;13887;57.196;-2.100;2023-05-07T10:52:34;10.14;93.01
22069;DHT22;13887;57.196;-2.100;2023-05-07T10:55:32;10.15;93.22
22069;DHT22;13887;57.196;-2.100;2023-05-07T10:58:27;10.14;93.13
22069;DHT22;13887;57.196;-2.100;2023-05-07T11:01:10;10.14;93.37
22069;DHT22;13887;57.196;-2.100;2023-05-07T11:04:12;10.13;93.57
22069;DHT22;13887;57.196;-2.100;2023-05-07T11:15:08;10.16;93.55
22069;DHT22;13887;57.196;-2.100;2023-05-07T11:18:01;10.14;93.51
22069;DHT22;13887;57.196;-2.100;2023-05-07T11:26:26;10.15;93.39
22069;DHT22;13887;57.196;-2.100;2023-05-07T11:28:53;10.16;93.69
22069;DHT22;13887;57.196;-2.100;2023-05-07T11:31:27;10.16;93.85
22069;DHT22;13887;57.196;-2.100;2023-05-07T11:33:59;10.18;93.75
22069;DHT22;13887;57.196;-2.100;2023-05-07T11:36:31;10.15;93.67
22069;DHT22;13887;57.196;-2.100;2023-05-07T11:39:00;10.18;93.78
22069;DHT22;13887;57.196;-2.100;2023-05-07T11:41:34;10.16;93.55
22069;DHT22;13887;57.196;-2.100;2023-05-07T11:44:02;10.16;93.38
22069;DHT22;13887;57.196;-2.100;2023-05-07T11:46:30;10.15;93.41
22069;DHT22;13887;57.196;-2.100;2023-05-07T11:48:57;10.16;93.58
22069;DHT22;13887;57.196;-2.100;2023-05-07T11:51:26;10.13;93.69
22069;DHT22;13887;57.196;-2.100;2023-05-07T11:53:54;10.13;93.69
22069;DHT22;13887;57.196;-2.100;2023-05-07T11:56:21;10.13;93.63
22069;DHT22;13887;57.196;-2.100;2023-05-07T11:58:48;10.13;93.60
22069;DHT22;13887;57.196;-2.100;2023-05-07T12:01:16;10.14;93.61
22069;DHT22;13887;57.196;-2.100;2023-05-07T12:03:44;10.15;93.59
22069;DHT22;13887;57.196;-2.100;2023-05-07T12:06:16;10.15;93.59
22069;DHT22;13887;57.196;-2.100;2023-05-07T12:08:44;10.15;93.60
22069;DHT22;13887;57.196;-2.100;2023-05-07T12:11:23;10.14;93.47
22069;DHT22;13887;57.196;-2.100;2023-05-07T12:13:50;10.14;93.38
22069;DHT22;13887;57.196;-2.100;2023-05-07T12:16:19;10.14;93.49
22069;DHT22;13887;57.196;-2.100;2023-05-07T12:18:46;10.12;93.43
22069;DHT22;13887;57.196;-2.100;2023-05-07T12:21:13;10.14;93.50
22069;DHT22;13887;57.196;-2.100;2023-05-07T12:23:40;10.14;93.46
22069;DHT22;13887;57.196;-2.100;2023-05-07T12:26:08;10.14;93.52
22069;DHT22;13887;57.196;-2.100;2023-05-07T12:28:38;10.13;93.53
22069;DHT22;13887;57.196;-2.100;2023-05-07T12:31:06;10.14;93.70
22069;DHT22;13887;57.196;-2.100;2023-05-07T12:33:34;10.15;93.66
22069;DHT22;13887;57.196;-2.100;2023-05-07T12:36:08;10.16;93.66
22069;DHT22;13887;57.196;-2.100;2023-05-07T12:38:36;10.15;93.82
22069;DHT22;13887;57.196;-2.100;2023-05-07T12:41:04;10.14;93.92
22069;DHT22;13887;57.196;-2.100;2023-05-07T12:43:31;10.15;93.85
22069;DHT22;13887;57.196;-2.100;2023-05-07T12:46:01;10.14;93.90
22069;DHT22;13887;57.196;-2.100;2023-05-07T12:48:28;10.16;93.77
22069;DHT22;13887;57.196;-2.100;2023-05-07T12:51:00;10.16;93.88
22069;DHT22;13887;57.196;-2.100;2023-05-07T12:53:28;10.19;93.69
22069;DHT22;13887;57.196;-2.100;2023-05-07T12:55:57;10.19;93.50
22069;DHT22;13887;57.196;-2.100;2023-05-07T12:58:29;10.20;93.82
22069;DHT22;13887;57.196;-2.100;2023-05-07T13:00:59;10.19;93.87
22069;DHT22;13887;57.196;-2.100;2023-05-07T13:03:31;10.19;93.76
22069;DHT22;13887;57.196;-2.100;2023-05-07T13:06:02;10.19;93.80
22069;DHT22;13887;57.196;-2.100;2023-05-07T13:08:33;10.19;93.66
22069;DHT22;13887;57.196;-2.100;2023-05-07T13:11:01;10.19;93.71
22069;DHT22;13887;57.196;-2.100;2023-05-07T13:13:31;10.19;93.97
22069;DHT22;13887;57.196;-2.100;2023-05-07T13:15:59;10.19;93.91
22069;DHT22;13887;57.196;-2.100;2023-05-07T13:18:28;10.18;93.82
22069;DHT22;13887;57.196;-2.100;2023-05-07T13:20:56;10.18;94.07
22069;DHT22;13887;57.196;-2.100;2023-05-07T13:23:23;10.18;93.95
22069;DHT22;13887;57.196;-2.100;2023-05-07T13:25:50;10.20;93.86
22069;DHT22;13887;57.196;-2.100;2023-05-07T13:28:20;10.19;93.75
22069;DHT22;13887;57.196;-2.100;2023-05-07T13:30:48;10.20;93.76
22069;DHT22;13887;57.196;-2.100;2023-05-07T13:33:15;10.20;93.65
22069;DHT22;13887;57.196;-2.100;2023-05-07T13:35:45;10.19;93.68
22069;DHT22;13887;57.196;-2.100;2023-05-07T13:38:11;10.19;93.43
22069;DHT22;13887;57.196;-2.100;2023-05-07T13:40:38;10.19;93.33
22069;DHT22;13887;57.196;-2.100;2023-05-07T13:43:05;10.20;93.52
22069;DHT22;13887;57.196;-2.100;2023-05-07T13:45:33;10.21;93.66
22069;DHT22;13887;57.196;-2.100;2023-05-07T13:48:00;10.21;93.48
22069;DHT22;13887;57.196;-2.100;2023-05-07T13:50:27;10.20;93.55
22069;DHT22;13887;57.196;-2.100;2023-05-07T13:52:55;10.20;93.20
22069;DHT22;13887;57.196;-2.100;2023-05-07T13:55:24;10.20;92.98
22069;DHT22;13887;57.196;-2.100;2023-05-07T13:57:58;10.23;93.27
22069;DHT22;13887;57.196;-2.100;2023-05-07T14:00:26;10.23;93.27
22069;DHT22;13887;57.196;-2.100;2023-05-07T14:02:54;10.23;93.18
22069;DHT22;13887;57.196;-2.100;2023-05-07T14:05:22;10.23;93.30
22069;DHT22;13887;57.196;-2.100;2023-05-07T14:07:52;10.22;93.56
22069;DHT22;13887;57.196;-2.100;2023-05-07T14:10:19;10.23;93.33
22069;DHT22;13887;57.196;-2.100;2023-05-07T14:12:46;10.26;95.17
22069;DHT22;13887;57.196;-2.100;2023-05-07T14:15:14;10.26;95.78
22069;DHT22;13887;57.196;-2.100;2023-05-07T14:17:43;10.23;95.77
22069;DHT22;13887;57.196;-2.100;2023-05-07T14:20:11;10.26;95.63
22069;DHT22;13887;57.196;-2.100;2023-05-07T14:22:39;10.34;95.49
22069;DHT22;13887;57.196;-2.100;2023-05-07T14:25:07;10.25;97.20
22069;DHT22;13887;57.196;-2.100;2023-05-07T14:27:34;10.34;95.46
22069;DHT22;13887;57.196;-2.100;2023-05-07T14:30:01;10.36;95.46
22069;DHT22;13887;57.196;-2.100;2023-05-07T14:32:28;10.37;95.42
22069;DHT22;13887;57.196;-2.100;2023-05-07T14:34:55;10.36;95.40
22069;DHT22;13887;57.196;-2.100;2023-05-07T14:37:23;10.35;95.22
22069;DHT22;13887;57.196;-2.100;2023-05-07T14:39:50;10.31;95.16
22069;DHT22;13887;57.196;-2.100;2023-05-07T14:42:17;10.33;95.07
22069;DHT22;13887;57.196;-2.100;2023-05-07T14:44:46;10.31;95.07
22069;DHT22;13887;57.196;-2.100;2023-05-07T14:47:14;10.29;95.28
22069;DHT22;13887;57.196;-2.100;2023-05-07T14:49:45;10.30;95.15
22069;DHT22;13887;57.196;-2.100;2023-05-07T14:52:12;10.26;95.73
22069;DHT22;13887;57.196;-2.100;2023-05-07T14:54:39;10.25;95.68
22069;DHT22;13887;57.196;-2.100;2023-05-07T14:57:08;10.27;95.49
22069;DHT22;13887;57.196;-2.100;2023-05-07T14:59:35;10.28;95.54
22069;DHT22;13887;57.196;-2.100;2023-05-07T15:02:02;10.30;95.39
22069;DHT22;13887;57.196;-2.100;2023-05-07T15:04:33;10.30;95.55
22069;DHT22;13887;57.196;-2.100;2023-05-07T15:07:00;10.26;95.68
22069;DHT22;13887;57.196;-2.100;2023-05-07T15:09:27;10.25;95.68
22069;DHT22;13887;57.196;-2.100;2023-05-07T15:11:53;10.26;95.60
22069;DHT22;13887;57.196;-2.100;2023-05-07T15:14:21;10.27;95.44
22069;DHT22;13887;57.196;-2.100;2023-05-07T15:16:48;10.25;95.35
22069;DHT22;13887;57.196;-2.100;2023-05-07T15:19:15;10.26;95.46
22069;DHT22;13887;57.196;-2.100;2023-05-07T15:21:43;10.24;95.39
22069;DHT22;13887;57.196;-2.100;2023-05-07T15:24:10;10.25;95.40
22069;DHT22;13887;57.196;-2.100;2023-05-07T15:26:39;10.27;95.23
22069;DHT22;13887;57.196;-2.100;2023-05-07T15:29:06;10.27;95.04
22069;DHT22;13887;57.196;-2.100;2023-05-07T15:31:38;10.29;94.98
22069;DHT22;13887;57.196;-2.100;2023-05-07T15:34:06;10.30;94.82
22069;DHT22;13887;57.196;-2.100;2023-05-07T15:36:33;10.29;94.84
22069;DHT22;13887;57.196;-2.100;2023-05-07T15:39:00;10.28;94.97
22069;DHT22;13887;57.196;-2.100;2023-05-07T15:41:29;10.31;94.92
22069;DHT22;13887;57.196;-2.100;2023-05-07T15:43:56;10.29;94.86
22069;DHT22;13887;57.196;-2.100;2023-05-07T15:46:24;10.31;94.98
22069;DHT22;13887;57.196;-2.100;2023-05-07T15:48:52;10.41;95.05
22069;DHT22;13887;57.196;-2.100;2023-05-07T15:51:19;10.43;94.33
22069;DHT22;13887;57.196;-2.100;2023-05-07T15:53:47;10.41;94.46
22069;DHT22;13887;57.196;-2.100;2023-05-07T15:56:14;10.39;94.56
22069;DHT22;13887;57.196;-2.100;2023-05-07T15:58:41;10.37;94.60